Time;durP1;ratioP1;P1;durP2;ratioP2;P2;SDS_P1;SDS_P2;PMS_P1;PMS_P2;Temp;Humidity;BMP_temperature;BMP_pressure;BME280_temperature;BME280_humidity;BME280_pressure;Samples;Min_cycle;Max_cycle;Signal;HPM_P1;HPM_P2
2023/04/12 00:00:44;;;;;;;6.63;5.13;;;;;;;13.16;54.38;93740.13;4951729;29;20641;-54
2023/04/12 00:03:11;;;;;;;5.80;5.20;;;;;;;13.15;54.39;93737.75;4951817;29;20202;-55
2023/04/12 00:05:38;;;;;;;5.63;5.03;;;;;;;13.14;54.40;93741.28;4951707;29;20195;-54
2023/04/12 00:08:05;;;;;;;5.37;4.83;;;;;;;13.13;54.32;93737.13;4951583;29;20217;-56
2023/04/12 00:10:32;;;;;;;5.60;5.03;;;;;;;13.12;54.50;93733.75;4962700;28;20204;-55
2023/04/12 00:12:59;;;;;;;7.50;5.63;;;;;;;13.11;54.57;93733.94;4971196;28;20200;-54
2023/04/12 00:15:27;;;;;;;6.33;5.40;;;;;;;13.10;54.50;93729.78;4953638;28;20657;-55
2023/04/12 00:17:54;;;;;;;5.27;4.77;;;;;;;13.03;54.61;93712.50;4951430;29;20693;-55
2023/04/12 00:20:21;;;;;;;5.97;5.20;;;;;;;13.06;54.77;93727.56;4951482;29;20720;-53
2023/04/12 00:22:48;;;;;;;6.20;5.13;;;;;;;13.05;54.78;93722.59;4951908;28;20585;-55
2023/04/12 00:25:14;;;;;;;6.67;5.33;;;;;;;13.04;54.74;93716.69;4970836;28;20197;-54
2023/04/12 00:27:41;;;;;;;5.73;5.13;;;;;;;13.04;54.54;93716.69;4971005;28;20684;-52
2023/04/12 00:30:09;;;;;;;6.00;5.30;;;;;;;13.04;54.66;93721.03;4970947;28;20186;-53
2023/04/12 00:32:37;;;;;;;6.90;5.73;;;;;;;13.02;54.82;93718.63;4970566;28;20193;-53
2023/04/12 00:35:04;;;;;;;6.80;5.23;;;;;;;13.01;54.77;93708.53;4970032;28;20197;-53
2023/04/12 00:37:31;;;;;;;7.27;4.60;;;;;;;13.00;54.87;93712.88;4970350;28;20281;-54
2023/04/12 00:39:57;;;;;;;6.93;5.13;;;;;;;13.00;54.80;93704.38;4970301;28;20190;-54
2023/04/12 00:42:24;;;;;;;5.27;4.77;;;;;;;12.99;54.90;93715.59;4970482;28;20209;-53
2023/04/12 00:44:51;;;;;;;6.33;4.73;;;;;;;12.99;54.82;93710.47;4970001;28;20196;-55
2023/04/12 00:47:18;;;;;;;5.70;5.20;;;;;;;12.99;55.00;93713.81;4970092;28;20236;-52
2023/04/12 00:49:46;;;;;;;5.57;5.07;;;;;;;12.99;55.08;93705.34;4955181;28;20591;-54
2023/04/12 00:52:14;;;;;;;5.57;5.00;;;;;;;12.98;54.99;93709.66;4950508;29;20578;-54
2023/04/12 00:54:43;;;;;;;5.60;5.10;;;;;;;12.96;55.26;93700.56;4950587;29;21064;-52
2023/04/12 00:57:10;;;;;;;5.90;5.17;;;;;;;12.97;55.29;93702.16;4951110;29;20549;-54
2023/04/12 00:59:36;;;;;;;5.83;5.27;;;;;;;12.94;55.18;93703.31;4950932;28;20581;-53
2023/04/12 01:02:03;;;;;;;8.07;5.13;;;;;;;12.95;55.17;93709.22;4964283;28;20589;-52
2023/04/12 01:04:30;;;;;;;6.43;5.80;;;;;;;12.93;55.28;93703.47;4953291;28;20680;-54
2023/04/12 01:07:14;;;;;;;6.30;5.37;;;;;;;12.93;55.24;93700.91;4951766;29;20273;-54
2023/04/12 01:09:50;;;;;;;6.10;5.50;;;;;;;12.92;55.26;93705.25;4967204;28;20654;-54
2023/04/12 01:12:25;;;;;;;7.40;5.17;;;;;;;12.91;55.22;93700.28;4971022;28;20208;-55
2023/04/12 01:15:02;;;;;;;6.47;5.50;;;;;;;12.90;55.51;93696.94;4970673;28;20236;-53
2023/04/12 01:17:36;;;;;;;6.30;5.17;;;;;;;12.80;55.38;93681.00;4966874;28;20190;-53
2023/04/12 01:20:12;;;;;;;8.93;5.20;;;;;;;12.90;55.37;93696.94;4951377;29;20193;-53
2023/04/12 01:23:06;;;;;;;7.53;5.10;;;;;;;12.88;55.36;93687.81;4951393;29;20197;-54
2023/04/12 01:25:40;;;;;;;6.20;5.50;;;;;;;12.86;55.49;93690.56;4951733;29;20601;-55
2023/04/12 01:28:11;;;;;;;6.97;5.30;;;;;;;12.85;55.52;93683.84;4950706;29;20225;-54
2023/04/12 01:30:41;;;;;;;6.50;5.50;;;;;;;12.81;55.50;93688.50;4951182;29;20199;-54
2023/04/12 01:33:11;;;;;;;7.33;5.83;;;;;;;12.85;55.59;93690.72;4950814;29;20281;-54
2023/04/12 01:35:40;;;;;;;6.70;5.37;;;;;;;12.84;55.65;93689.16;4950962;29;20745;-55
2023/04/12 01:38:07;;;;;;;7.43;6.40;;;;;;;12.84;55.63;93692.50;4950987;29;20627;-54
2023/04/12 01:40:35;;;;;;;7.10;6.03;;;;;;;12.85;55.49;93686.41;4951112;29;20673;-55
2023/04/12 01:43:07;;;;;;;7.77;5.80;;;;;;;12.84;55.65;93692.50;4951212;29;20573;-55
2023/04/12 01:45:35;;;;;;;7.40;5.90;;;;;;;12.73;55.75;93677.53;4951382;29;20205;-55
2023/04/12 01:48:04;;;;;;;6.70;5.97;;;;;;;12.83;55.67;93695.25;4950245;29;20612;-54
2023/04/12 01:50:39;;;;;;;6.10;5.40;;;;;;;12.83;55.68;93695.25;4950882;29;20678;-53
2023/04/12 01:53:12;;;;;;;6.97;5.50;;;;;;;12.81;55.79;93692.84;4950826;29;20613;-55
2023/04/12 01:55:41;;;;;;;6.57;5.87;;;;;;;12.79;55.76;93695.59;4950967;29;20241;-53
2023/04/12 01:58:11;;;;;;;9.77;6.03;;;;;;;12.78;55.94;93690.66;4950966;29;20341;-54
2023/04/12 02:00:41;;;;;;;5.97;5.37;;;;;;;12.77;55.83;93689.03;4950977;29;20236;-55
2023/04/12 02:03:11;;;;;;;5.87;5.27;;;;;;;12.77;55.63;93689.84;4950228;29;20273;-56
2023/04/12 02:05:38;;;;;;;6.03;5.30;;;;;;;12.65;56.05;93675.88;4950945;29;20198;-55
2023/04/12 02:08:06;;;;;;;9.37;6.63;;;;;;;12.74;55.77;93692.78;4950399;29;20222;-56
2023/04/12 02:10:35;;;;;;;6.57;5.93;;;;;;;12.74;55.91;93691.97;4951143;29;20193;-54
2023/04/12 02:13:02;;;;;;;5.97;5.47;;;;;;;12.64;55.97;93681.94;4953211;28;20194;-52
2023/04/12 02:15:29;;;;;;;5.93;5.37;;;;;;;12.47;56.13;93657.44;4954326;29;20194;-54
2023/04/12 02:17:58;;;;;;;6.13;5.53;;;;;;;12.68;55.95;93685.75;4954487;29;20252;-54
2023/04/12 02:20:25;;;;;;;7.47;6.23;;;;;;;12.69;56.14;93692.47;4954035;29;20197;-55
2023/04/12 02:22:52;;;;;;;6.67;5.73;;;;;;;12.70;56.05;93696.66;4954204;28;20289;-55
2023/04/12 02:25:19;;;;;;;7.63;6.17;;;;;;;12.65;56.14;93688.69;4954608;29;20198;-52
2023/04/12 02:27:47;;;;;;;6.33;5.73;;;;;;;12.65;55.90;93687.88;4954074;29;20838;-53
2023/04/12 02:30:14;;;;;;;8.83;5.83;;;;;;;12.68;56.07;93692.66;4954456;29;20274;-53
2023/04/12 02:32:44;;;;;;;7.30;6.33;;;;;;;12.68;56.04;93697.78;4954035;29;20222;-53
2023/04/12 02:35:13;;;;;;;6.60;5.80;;;;;;;12.66;56.46;93687.72;4954157;29;20644;-54
2023/04/12 02:37:42;;;;;;;7.73;6.30;;;;;;;12.65;56.13;93693.81;4954118;29;20681;-54
2023/04/12 02:40:10;;;;;;;6.87;5.73;;;;;;;12.65;56.11;93688.69;4954127;29;20233;-54
2023/04/12 02:42:37;;;;;;;6.97;6.07;;;;;;;12.65;56.16;93683.56;4954212;29;20201;-54
2023/04/12 02:45:04;;;;;;;7.30;5.90;;;;;;;12.57;56.24;93668.25;4953790;29;20202;-54
2023/04/12 02:47:31;;;;;;;8.50;6.70;;;;;;;12.65;56.17;93680.19;4954090;29;20199;-55
2023/04/12 02:49:58;;;;;;;8.10;6.30;;;;;;;12.62;56.23;93678.78;4953525;29;20218;-53
2023/04/12 02:52:28;;;;;;;7.30;5.70;;;;;;;12.63;56.21;93671.88;4953678;29;20738;-55
2023/04/12 02:54:55;;;;;;;6.60;5.80;;;;;;;12.63;56.42;93675.22;4954090;29;20587;-55
2023/04/12 02:57:22;;;;;;;8.10;6.23;;;;;;;12.64;56.32;93673.47;4953854;29;20201;-53
2023/04/12 02:59:51;;;;;;;9.03;6.10;;;;;;;12.64;56.25;93670.91;4954568;29;20198;-54
2023/04/12 03:02:18;;;;;;;6.60;5.87;;;;;;;12.66;56.29;93681.78;4953625;29;20198;-52
2023/04/12 03:04:45;;;;;;;7.10;5.53;;;;;;;12.65;56.18;93672.47;4953535;29;20202;-53
2023/04/12 03:07:12;;;;;;;10.63;7.00;;;;;;;12.65;56.16;93668.19;4953585;29;20198;-55
2023/04/12 03:09:41;;;;;;;7.57;6.30;;;;;;;12.72;56.13;93668.25;4953826;29;20214;-53
2023/04/12 03:12:08;;;;;;;6.57;5.23;;;;;;;12.71;55.92;93654.63;4953363;29;20639;-54
2023/04/12 03:14:35;;;;;;;8.20;6.17;;;;;;;12.77;56.26;93666.75;4953491;29;20249;-52
2023/04/12 03:17:02;;;;;;;7.27;5.73;;;;;;;12.79;55.93;93667.38;4953102;29;20186;-52
2023/04/12 03:19:31;;;;;;;8.53;6.17;;;;;;;12.83;55.96;93667.03;4953276;29;20202;-55
2023/04/12 03:21:58;;;;;;;8.63;6.60;;;;;;;12.85;56.00;93675.34;4934108;29;20191;-53
2023/04/12 03:24:25;;;;;;;7.73;6.27;;;;;;;12.85;56.36;93671.00;4932962;28;20226;-55
2023/04/12 03:26:54;;;;;;;7.90;6.67;;;;;;;12.89;56.02;93671.44;4934310;29;20304;-51
2023/04/12 03:29:20;;;;;;;7.93;6.33;;;;;;;12.91;55.97;93672.06;4934149;29;20222;-54
2023/04/12 03:31:47;;;;;;;8.13;6.60;;;;;;;12.93;56.30;93681.19;4952936;29;20198;-55
2023/04/12 03:34:14;;;;;;;9.23;6.97;;;;;;;12.97;56.19;93677.28;4952887;29;20305;-53
2023/04/12 03:36:41;;;;;;;9.90;7.20;;;;;;;12.99;56.15;93682.25;4953169;29;20664;-53
2023/04/12 03:39:08;;;;;;;7.03;6.33;;;;;;;13.02;56.45;93681.88;4952958;29;20280;-54
2023/04/12 03:41:35;;;;;;;8.13;6.60;;;;;;;13.02;56.33;93677.56;4952878;29;20310;-54
2023/04/12 03:44:03;;;;;;;8.77;7.63;;;;;;;13.01;56.23;93677.75;4952904;29;20249;-51
2023/04/12 03:46:30;;;;;;;10.17;7.47;;;;;;;13.00;56.54;93679.50;4952805;29;20680;-54
2023/04/12 03:48:57;;;;;;;9.17;7.33;;;;;;;13.10;56.29;93689.50;4952789;29;20229;-54
2023/04/12 03:51:25;;;;;;;8.33;7.03;;;;;;;12.53;56.33;93601.13;4953050;29;20665;-53
2023/04/12 03:53:52;;;;;;;8.53;7.33;;;;;;;13.11;56.59;93687.72;4952349;29;20182;-51
2023/04/12 03:59:42;;;;;;;8.27;7.13;;;;;;;13.15;56.56;93697.47;5127066;23;20263;-55
2023/04/12 04:02:09;;;;;;;8.13;7.33;;;;;;;13.17;56.48;93698.09;5049259;28;20677;-56
2023/04/12 04:04:36;;;;;;;8.60;7.63;;;;;;;13.16;56.58;93685.41;5050615;28;20191;-54
2023/04/12 04:07:03;;;;;;;9.23;7.10;;;;;;;13.20;56.71;93692.59;5050648;28;20191;-55
2023/04/12 04:09:30;;;;;;;9.60;7.40;;;;;;;13.22;56.52;93693.25;5050427;28;20211;-56
2023/04/12 04:11:57;;;;;;;9.30;8.37;;;;;;;13.23;56.54;93701.75;5050410;28;20195;-53
2023/04/12 04:14:24;;;;;;;10.10;7.63;;;;;;;13.26;56.47;93707.31;5049600;28;20210;-54
2023/04/12 04:16:52;;;;;;;9.03;7.50;;;;;;;13.28;56.43;93710.50;5050463;28;20187;-56
2023/04/12 04:19:20;;;;;;;9.37;7.83;;;;;;;13.32;56.59;93721.22;5050084;28;20631;-56
2023/04/12 04:21:48;;;;;;;9.70;8.30;;;;;;;13.27;56.52;93726.09;5049999;28;20187;-54
2023/04/12 04:24:17;;;;;;;9.20;7.97;;;;;;;13.33;56.63;93732.28;5050586;28;20274;-54
2023/04/12 04:26:44;;;;;;;10.07;8.03;;;;;;;13.38;56.37;93738.47;5050422;28;20202;-54
2023/04/12 04:29:11;;;;;;;9.27;7.50;;;;;;;13.41;56.33;93742.47;5049747;28;20227;-55
2023/04/12 04:31:38;;;;;;;9.47;7.87;;;;;;;13.45;56.14;93738.56;5049676;28;20298;-54
2023/04/12 04:34:07;;;;;;;10.73;8.60;;;;;;;13.45;56.15;93734.22;5044783;28;20217;-54
2023/04/12 04:36:35;;;;;;;9.17;7.87;;;;;;;13.54;56.20;93735.72;5048706;28;20252;-56
2023/04/12 04:39:03;;;;;;;8.27;7.40;;;;;;;13.59;55.98;93739.50;5049643;28;20565;-56
2023/04/12 04:41:33;;;;;;;9.27;7.57;;;;;;;13.62;56.02;93744.31;5050071;28;20274;-55
2023/04/12 04:44:00;;;;;;;8.20;7.37;;;;;;;13.64;56.21;93742.34;5049664;28;20190;-54
2023/04/12 04:46:29;;;;;;;8.97;8.03;;;;;;;13.66;56.02;93748.91;5049646;28;20350;-55
2023/04/12 04:48:57;;;;;;;11.10;7.77;;;;;;;13.70;55.83;93751.91;5049661;28;20715;-56
2023/04/12 04:51:26;;;;;;;9.60;7.70;;;;;;;13.72;55.99;93747.38;5049571;28;20638;-55
2023/04/12 04:53:53;;;;;;;10.73;8.27;;;;;;;13.75;55.63;93750.38;5050087;28;20230;-54
2023/04/12 04:56:21;;;;;;;9.47;8.07;;;;;;;13.80;55.76;93760.13;5049688;28;20207;-55
2023/04/12 04:58:48;;;;;;;8.40;7.50;;;;;;;13.84;55.66;93758.78;5050062;28;20191;-54
2023/04/12 05:01:15;;;;;;;10.30;7.93;;;;;;;13.88;55.76;93749.75;5049530;28;20237;-56
2023/04/12 05:03:43;;;;;;;8.70;7.43;;;;;;;13.91;55.40;93751.97;5049614;28;20666;-54
2023/04/12 05:06:10;;;;;;;9.47;7.43;;;;;;;13.96;55.41;93759.91;5049707;28;20234;-54
2023/04/12 05:08:39;;;;;;;9.37;7.33;;;;;;;13.98;55.52;93762.28;5049795;28;20219;-52
2023/04/12 05:11:06;;;;;;;8.33;7.13;;;;;;;14.03;55.25;93765.13;5049526;28;20603;-54
2023/04/12 05:13:33;;;;;;;8.80;6.20;;;;;;;14.09;55.18;93777.25;5049917;28;20191;-52
2023/04/12 05:15:59;;;;;;;7.70;6.90;;;;;;;14.12;55.24;93765.81;5049379;28;20682;-52
2023/04/12 05:18:26;;;;;;;8.03;6.90;;;;;;;14.13;55.04;93765.63;5049291;28;20199;-56
2023/04/12 05:20:53;;;;;;;9.57;7.43;;;;;;;14.19;54.74;93770.03;5049481;28;20179;-56
2023/04/12 05:23:20;;;;;;;8.97;7.03;;;;;;;14.26;54.87;93773.50;5049941;28;20187;-55
2023/04/12 05:25:48;;;;;;;9.47;6.90;;;;;;;14.34;54.74;93775.16;5049447;28;20216;-54
2023/04/12 05:28:16;;;;;;;8.40;7.20;;;;;;;14.37;54.25;93766.25;5049566;28;20281;-57
2023/04/12 05:30:43;;;;;;;7.70;6.47;;;;;;;14.42;54.30;93758.78;5049126;28;20669;-54
2023/04/12 05:33:10;;;;;;;10.10;6.93;;;;;;;14.50;54.09;93768.97;5048678;28;20191;-54
2023/04/12 05:35:37;;;;;;;5.87;4.20;;;;;;;15.11;81.92;93765.88;5034103;28;20195;-54
2023/04/12 05:38:04;;;;;;;8.03;5.30;;;;;;;15.50;75.78;93771.31;5033752;28;20196;-53
2023/04/12 05:40:31;;;;;;;7.90;5.67;;;;;;;15.61;72.05;93774.31;5046308;28;20221;-55
2023/04/12 05:43:00;;;;;;;6.33;4.47;;;;;;;15.68;69.28;93775.97;5034311;28;20183;-52
2023/04/12 05:45:27;;;;;;;7.13;4.97;;;;;;;15.63;67.96;93769.75;5041879;28;20187;-52
2023/04/12 05:47:54;;;;;;;7.83;4.80;;;;;;;15.60;66.72;93767.59;5037854;28;20643;-52
2023/04/12 05:50:21;;;;;;;11.67;5.23;;;;;;;15.56;65.78;93773.09;5045304;28;20298;-51
2023/04/12 05:52:48;;;;;;;6.57;4.97;;;;;;;15.53;64.71;93778.63;5039053;28;20201;-52
2023/04/12 05:55:17;;;;;;;5.57;4.93;;;;;;;15.45;64.17;93778.00;5042374;28;20191;-51
2023/04/12 05:57:45;;;;;;;7.30;5.20;;;;;;;15.42;63.38;93779.19;5041744;28;20560;-51
2023/04/12 06:00:16;;;;;;;9.23;4.97;;;;;;;15.38;62.77;93790.06;5042486;28;20227;-51
2023/04/12 06:02:43;;;;;;;5.30;4.80;;;;;;;15.32;61.93;93787.22;5043938;28;20191;-51
2023/04/12 06:05:11;;;;;;;5.90;4.60;;;;;;;15.28;61.52;93796.34;5047502;28;20211;-52
2023/04/12 06:07:38;;;;;;;4.77;4.30;;;;;;;15.23;60.71;93792.72;5043199;28;20187;-54
2023/04/12 06:10:07;;;;;;;6.47;4.33;;;;;;;15.13;60.50;93787.91;5042435;28;20225;-52
2023/04/12 06:12:34;;;;;;;5.83;4.70;;;;;;;15.12;59.99;93795.84;5039917;28;20203;-51
2023/04/12 06:15:01;;;;;;;5.33;4.83;;;;;;;15.10;59.67;93814.03;5040937;28;20219;-55
2023/04/12 06:17:29;;;;;;;5.03;4.60;;;;;;;15.05;59.33;93806.84;5038307;28;20195;-54
2023/04/12 06:19:56;;;;;;;6.80;4.50;;;;;;;14.90;58.89;93798.44;5042615;28;20202;-54
2023/04/12 06:22:23;;;;;;;8.70;4.83;;;;;;;14.91;58.65;93806.97;5040942;28;20196;-55
2023/04/12 06:24:49;;;;;;;4.60;4.20;;;;;;;14.91;58.45;93809.53;5032146;28;20190;-53
2023/04/12 06:27:16;;;;;;;4.87;4.37;;;;;;;14.89;58.14;93807.13;5044436;28;20199;-55
2023/04/12 06:29:43;;;;;;;4.60;4.20;;;;;;;14.89;57.91;93809.69;5034947;28;20227;-55
2023/04/12 06:32:10;;;;;;;5.23;3.97;;;;;;;14.70;57.78;93766.59;5035362;28;20194;-52
2023/04/12 06:34:38;;;;;;;5.40;4.50;;;;;;;14.92;57.45;93806.75;5042398;28;20204;-53
2023/04/12 06:37:05;;;;;;;6.97;4.53;;;;;;;14.98;57.21;93793.16;5038094;28;20203;-52
2023/04/12 06:39:32;;;;;;;7.40;4.63;;;;;;;15.04;56.79;93794.97;5038626;28;20328;-55
2023/04/12 06:42:00;;;;;;;5.60;4.53;;;;;;;15.13;56.61;93794.84;5040719;28;20292;-54
2023/04/12 06:44:27;;;;;;;4.27;3.87;;;;;;;15.25;56.20;93809.59;5038498;28;20180;-52
2023/04/12 06:46:54;;;;;;;5.50;4.27;;;;;;;15.36;55.87;93797.16;5038341;28;20207;-54
2023/04/12 06:49:20;;;;;;;5.00;4.43;;;;;;;15.48;55.48;93803.38;5039982;28;20210;-54
2023/04/12 06:51:49;;;;;;;4.47;4.00;;;;;;;15.50;55.14;93791.91;5032437;28;20195;-53
2023/04/12 06:54:16;;;;;;;8.97;4.40;;;;;;;15.55;55.14;93789.56;5042942;28;20202;-56
2023/04/12 06:56:42;;;;;;;4.47;3.97;;;;;;;15.59;54.74;93786.59;5034575;28;20205;-55
2023/04/12 06:59:10;;;;;;;4.37;3.97;;;;;;;15.63;54.60;93780.88;5034407;28;20528;-56
2023/04/12 07:01:36;;;;;;;4.57;3.63;;;;;;;15.79;53.87;93787.50;5040911;28;20254;-46
2023/04/12 07:04:04;;;;;;;4.83;3.80;;;;;;;15.93;53.67;93780.63;5039438;28;20207;-46
2023/04/12 07:06:31;;;;;;;4.10;3.70;;;;;;;16.18;53.27;93783.50;5037117;28;20198;-47
2023/04/12 07:08:59;;;;;;;6.57;3.73;;;;;;;16.76;71.65;93771.72;5042464;28;20292;-46
2023/04/12 07:11:27;;;;;;;6.23;3.50;;;;;;;17.71;71.18;93782.53;5036540;28;20698;-46
2023/04/12 07:13:54;;;;;;;5.03;3.97;;;;;;;18.57;68.49;93778.78;5040251;28;20198;-46
2023/04/12 07:16:20;;;;;;;12.83;3.63;;;;;;;19.29;66.29;93784.41;5042279;28;20205;-45
2023/04/12 07:18:48;;;;;;;7.60;4.00;;;;;;;19.80;64.11;93788.53;5029998;28;20310;-44
2023/04/12 07:21:16;;;;;;;7.17;3.50;;;;;;;20.19;62.55;93783.88;5030319;28;20202;-46
2023/04/12 07:23:43;;;;;;;5.10;3.30;;;;;;;20.42;61.59;93788.38;5043194;28;20195;-45
2023/04/12 07:26:11;;;;;;;5.20;3.30;;;;;;;20.58;60.74;93787.00;5040631;28;20678;-46
2023/04/12 07:28:38;;;;;;;4.90;3.00;;;;;;;20.73;59.95;93782.19;5036204;28;20632;-47
2023/04/12 07:31:06;;;;;;;7.67;3.43;;;;;;;20.87;59.21;93775.78;5042660;28;20222;-47
2023/04/12 07:33:34;;;;;;;7.10;3.30;;;;;;;20.99;58.55;93781.00;5032320;28;20516;-45
2023/04/12 07:36:01;;;;;;;3.20;2.90;;;;;;;21.10;57.90;93780.22;5039975;28;20286;-46
2023/04/12 07:38:28;;;;;;;7.23;3.33;;;;;;;21.08;56.81;93763.28;5042829;28;20201;-47
2023/04/12 07:40:55;;;;;;;4.22;2.83;;;;;;;21.31;55.49;93765.88;5039954;28;20298;-47
2023/04/12 07:43:24;;;;;;;3.03;2.70;;;;;;;21.70;54.31;93758.41;5039471;28;20195;-48
2023/04/12 07:45:51;;;;;;;4.32;2.97;;;;;;;22.38;53.98;93781.09;5041088;28;20195;-46
2023/04/12 07:48:18;;;;;;;4.95;3.15;;;;;;;22.93;53.06;93775.31;5040316;28;20187;-46
2023/04/12 07:50:45;;;;;;;6.03;3.22;;;;;;;23.33;52.11;93768.34;5034989;28;20223;-46
2023/04/12 07:53:20;;;;;;;9.35;2.92;;;;;;;23.56;51.36;93772.56;5037937;28;20281;-46
2023/04/12 07:55:47;;;;;;;3.75;2.78;;;;;;;23.60;51.11;93760.63;5033799;28;20201;-47
2023/04/12 07:58:14;;;;;;;3.97;2.60;;;;;;;23.55;50.90;93750.91;5039048;28;20249;-46
2023/04/12 08:00:43;;;;;;;2.83;2.60;;;;;;;23.47;50.49;93746.09;5037872;28;20224;-46
2023/04/12 08:03:12;;;;;;;2.88;2.53;;;;;;;23.40;50.11;93741.06;5042043;28;20649;-46
2023/04/12 08:05:39;;;;;;;3.13;2.70;;;;;;;23.32;49.86;93738.06;5035452;28;20191;-47
2023/04/12 08:08:08;;;;;;;4.50;2.85;;;;;;;23.19;49.36;93734.75;5038094;28;20191;-47
2023/04/12 08:10:35;;;;;;;3.88;2.60;;;;;;;22.96;48.52;93720.06;5037979;28;20226;-46
2023/04/12 08:13:03;;;;;;;10.70;2.80;;;;;;;22.89;48.00;93744.72;5039932;28;20249;-45
2023/04/12 08:15:29;;;;;;;4.30;2.42;;;;;;;22.61;47.30;93737.72;5038638;28;20207;-46
2023/04/12 08:17:57;;;;;;;3.53;2.30;;;;;;;22.41;46.66;93749.38;5037946;28;20531;-46
2023/04/12 08:20:24;;;;;;;3.47;2.63;;;;;;;22.28;46.60;93744.47;5037315;28;20199;-47
2023/04/12 08:22:53;;;;;;;2.63;2.42;;;;;;;22.45;46.92;93749.69;5037925;28;20510;-45
2023/04/12 08:25:21;;;;;;;2.55;2.35;;;;;;;22.76;46.79;93733.56;5034817;28;20199;-48
2023/04/12 08:27:49;;;;;;;2.35;2.15;;;;;;;23.20;46.48;93735.56;5035077;28;20198;-47
2023/04/12 08:30:16;;;;;;;3.35;2.00;;;;;;;23.67;46.29;93735.97;5039283;28;20638;-47
2023/04/12 08:32:43;;;;;;;2.30;2.20;;;;;;;24.09;45.72;93732.00;5036609;28;20201;-48
2023/04/12 08:35:11;;;;;;;2.80;2.22;;;;;;;24.50;45.47;93738.47;5038559;28;20203;-46
2023/04/12 08:37:38;;;;;;;5.38;1.88;;;;;;;24.77;44.79;93728.75;5034955;28;20191;-47
2023/04/12 08:40:07;;;;;;;3.65;2.13;;;;;;;24.97;44.02;93725.53;5037314;28;20808;-47
2023/04/12 08:42:35;;;;;;;2.33;2.13;;;;;;;25.31;44.23;93717.41;5038868;28;20642;-45
2023/04/12 08:45:05;;;;;;;2.50;2.00;;;;;;;25.58;43.42;93727.78;5035844;28;20257;-46
2023/04/12 08:47:33;;;;;;;2.00;1.90;;;;;;;25.69;43.21;93723.34;5032990;28;20207;-48
2023/04/12 08:50:02;;;;;;;2.30;2.03;;;;;;;25.79;43.47;93739.16;5032633;28;20687;-48
2023/04/12 08:52:34;;;;;;;3.78;1.67;;;;;;;25.70;43.34;93740.66;5034310;28;20272;-47
2023/04/12 08:55:02;;;;;;;6.80;1.85;;;;;;;25.47;43.58;93716.44;5044001;28;20290;-46
2023/04/12 08:57:29;;;;;;;2.33;2.13;;;;;;;25.49;43.90;93722.22;5037736;28;20264;-46
2023/04/12 08:59:58;;;;;;;2.83;2.00;;;;;;;25.31;44.13;93730.50;5040998;28;20203;-46
2023/04/12 09:02:25;;;;;;;4.57;2.10;;;;;;;25.13;43.61;93726.47;5037745;28;20337;-47
2023/04/12 09:04:52;;;;;;;2.20;2.10;;;;;;;24.97;43.36;93735.22;5038452;28;20191;-47
2023/04/12 09:07:22;;;;;;;7.95;2.10;;;;;;;24.79;42.90;93731.16;5037858;28;20195;-46
2023/04/12 09:09:50;;;;;;;3.47;2.00;;;;;;;24.65;42.71;93725.50;5039847;28;20213;-46
2023/04/12 09:12:21;;;;;;;3.30;2.05;;;;;;;24.71;42.30;93737.63;5032918;28;20206;-48
2023/04/12 09:14:48;;;;;;;3.00;1.75;;;;;;;24.61;42.13;93719.22;5039272;28;20194;-47
2023/04/12 09:17:24;;;;;;;2.97;1.80;;;;;;;24.62;41.45;93731.25;5041237;28;20190;-47
2023/04/12 09:19:52;;;;;;;2.03;1.85;;;;;;;24.65;41.36;93715.06;5036260;28;20207;-47
2023/04/12 09:22:19;;;;;;;2.15;1.73;;;;;;;24.68;41.43;93719.81;5036743;28;20192;-48
2023/04/12 09:24:48;;;;;;;3.22;1.80;;;;;;;24.63;40.83;93721.59;5036898;28;20187;-48
2023/04/12 09:27:19;;;;;;;2.30;1.70;;;;;;;24.56;40.53;93703.47;5037576;28;20305;-49
2023/04/12 09:29:50;;;;;;;2.15;1.83;;;;;;;24.51;40.21;93703.44;5036257;28;20241;-47
2023/04/12 09:32:24;;;;;;;3.50;1.73;;;;;;;24.52;39.60;93699.78;5034442;28;20200;-47
2023/04/12 09:34:56;;;;;;;1.67;1.50;;;;;;;24.54;39.45;93697.72;5038492;28;20650;-47
2023/04/12 09:37:25;;;;;;;2.38;1.80;;;;;;;24.53;39.36;93704.78;5043909;28;20214;-45
2023/04/12 09:40:00;;;;;;;2.00;1.83;;;;;;;24.40;39.37;93712.25;5036450;28;20262;-47
2023/04/12 09:42:28;;;;;;;2.55;1.58;;;;;;;24.18;39.45;93697.38;5036870;28;20199;-46
2023/04/12 09:44:56;;;;;;;2.72;1.63;;;;;;;23.89;39.17;93667.28;5038721;28;20194;-47
2023/04/12 09:47:36;;;;;;;2.38;1.77;;;;;;;23.99;38.81;93681.22;5035515;28;20211;-47
2023/04/12 09:50:04;;;;;;;3.50;2.08;;;;;;;23.94;38.91;93681.19;5040982;28;20214;-46
2023/04/12 09:52:37;;;;;;;2.70;1.77;;;;;;;23.97;38.54;93675.47;5036858;28;20283;-46
2023/04/12 09:55:09;;;;;;;2.15;2.03;;;;;;;24.01;38.28;93668.72;5031066;28;20282;-47
2023/04/12 09:57:40;;;;;;;1.70;1.60;;;;;;;23.85;38.34;93638.25;5034133;28;20196;-50
2023/04/12 10:00:11;;;;;;;2.08;1.60;;;;;;;23.92;38.18;93670.19;5041664;28;20231;-47
2023/04/12 10:02:40;;;;;;;1.70;1.60;;;;;;;23.85;38.05;93661.75;5031959;28;20290;-48
2023/04/12 10:05:07;;;;;;;2.03;1.55;;;;;;;23.81;38.07;93665.09;5037600;28;20191;-45
2023/04/12 10:07:36;;;;;;;2.22;2.03;;;;;;;23.79;37.61;93670.56;5032178;28;20194;-47
2023/04/12 10:10:05;;;;;;;1.92;1.60;;;;;;;23.76;37.62;93673.66;5036178;28;20226;-48
2023/04/12 10:12:33;;;;;;;5.28;1.85;;;;;;;23.72;37.40;93670.75;5039211;28;20203;-49
2023/04/12 10:15:04;;;;;;;2.15;1.50;;;;;;;23.62;37.04;93656.75;5041449;28;20195;-47
2023/04/12 10:17:34;;;;;;;2.55;1.77;;;;;;;23.50;36.61;93643.84;5036402;28;20191;-47
2023/04/12 10:20:04;;;;;;;1.85;1.75;;;;;;;23.51;36.45;93664.47;5033063;28;20287;-46
2023/04/12 10:22:30;;;;;;;1.80;1.70;;;;;;;23.46;36.26;93646.16;5033587;28;20342;-46
2023/04/12 10:24:59;;;;;;;1.67;1.58;;;;;;;23.45;36.08;93644.56;5038290;28;20191;-47
2023/04/12 10:27:27;;;;;;;3.95;1.90;;;;;;;23.40;36.08;93656.75;5033661;28;20541;-46
2023/04/12 10:29:54;;;;;;;2.45;1.70;;;;;;;23.32;36.09;93636.31;5038579;28;20266;-47
2023/04/12 10:32:23;;;;;;;2.97;1.85;;;;;;;23.25;35.85;93641.72;5035442;28;20372;-48
2023/04/12 10:34:52;;;;;;;3.08;1.90;;;;;;;23.20;36.08;93636.44;5038371;28;20187;-49
2023/04/12 10:37:18;;;;;;;1.83;1.70;;;;;;;23.15;36.03;93631.16;5041273;28;20207;-46
2023/04/12 10:39:52;;;;;;;2.00;1.60;;;;;;;23.09;35.79;93629.50;5041563;28;20195;-47
2023/04/12 10:42:25;;;;;;;1.70;1.60;;;;;;;22.99;35.98;93624.94;5039141;28;20218;-46
2023/04/12 10:44:53;;;;;;;1.35;1.35;;;;;;;22.89;35.85;93630.78;5039834;28;20226;-47
2023/04/12 10:48:00;;;;;;;1.88;1.77;;;;;;;22.86;35.58;93631.25;5042297;28;20254;-46
2023/04/12 10:50:29;;;;;;;1.95;1.60;;;;;;;22.83;35.65;93639.53;5040106;28;20219;-47
2023/04/12 10:53:25;;;;;;;2.03;1.80;;;;;;;22.77;35.63;93630.88;5044617;28;20201;-46
2023/04/12 10:55:52;;;;;;;1.45;1.35;;;;;;;22.54;35.46;93623.22;4968162;28;20213;-46
2023/04/12 10:58:52;;;;;;;3.17;1.88;;;;;;;22.41;35.39;93626.94;4969246;28;20285;-46
2023/04/12 11:01:19;;;;;;;1.83;1.73;;;;;;;22.24;35.27;93633.97;4965308;28;20229;-48
2023/04/12 11:04:11;;;;;;;2.08;1.88;;;;;;;22.05;35.20;93622.91;4963792;28;20198;-47
2023/04/12 11:06:48;;;;;;;3.42;1.70;;;;;;;22.00;35.24;93622.84;4966716;28;20236;-46
2023/04/12 11:09:22;;;;;;;1.55;1.45;;;;;;;21.96;35.11;93617.31;4964687;28;20197;-46
2023/04/12 11:11:49;;;;;;;1.67;1.58;;;;;;;21.94;35.32;93619.38;4966127;28;20923;-46
2023/04/12 11:14:16;;;;;;;1.65;1.55;;;;;;;21.92;35.04;93624.00;4966075;28;20209;-48
2023/04/12 11:17:22;;;;;;;1.92;1.40;;;;;;;21.89;34.86;93632.28;4966448;28;20194;-46
2023/04/12 11:19:56;;;;;;;4.38;1.63;;;;;;;21.83;34.83;93620.19;4928144;29;20210;-47
2023/04/12 11:22:24;;;;;;;2.65;1.70;;;;;;;21.74;34.73;93630.19;4927741;29;20199;-47
2023/04/12 11:24:54;;;;;;;1.70;1.60;;;;;;;21.60;34.49;93623.69;4927356;29;20210;-47
2023/04/12 11:27:22;;;;;;;1.50;1.40;;;;;;;21.63;34.70;93614.63;4927363;29;20210;-48
2023/04/12 11:29:51;;;;;;;1.85;1.70;;;;;;;21.59;34.66;93627.31;4927694;29;20221;-47
2023/04/12 11:32:18;;;;;;;1.70;1.60;;;;;;;21.60;34.50;93615.09;4944836;28;20304;-51
2023/04/12 11:34:46;;;;;;;4.68;1.75;;;;;;;21.57;34.54;93618.94;4975028;28;20599;-49
2023/04/12 11:37:15;;;;;;;2.35;1.40;;;;;;;21.62;34.30;93626.84;4972948;28;20397;-49
2023/04/12 11:39:43;;;;;;;2.88;1.88;;;;;;;21.61;34.18;93625.25;4975951;28;20549;-48
2023/04/12 11:42:15;;;;;;;1.80;1.70;;;;;;;21.57;34.03;93613.72;4981767;28;20194;-48
2023/04/12 11:44:43;;;;;;;1.60;1.50;;;;;;;21.57;34.04;93618.16;4972405;28;20316;-47